Accueil
METAR-TAF:

METAR-TAF

Aéroports :

Chengdu, Chine

Aéroport international de Chengdu-Shuangliu

latitude: 30-40N, longitude: 104-01E, altitude: 508 m

Observation

Le bulletin a été fait il y a 12 minutes, à 03:00 UTC
Vent 4 kt de ouest/sud-ouest, variant entre sud/sud-est et ouest/nord-ouest
Température 19°C
Humidité 78%
Pression 1018 hPa
Visibilité 10 km ou plus
Quelques nuages à une hauteur de 2600 ft
Nuages épars à une hauteur de 4000 ft

METAR: ZUUU 250300Z 25002MPS 160V300 9999 FEW026 SCT040 19/15 Q1018 NOSIG

Heure: 11:12 (03:12 UTC)

Prévision

Le bulletin a été fait il y a 7 heures et 9 minutes, à 20:03 UTC
Prévision valable du 25 à 00 UTC au 25 à 24 UTC
Vent 6 kt de nord/nord-est
Visibilité: 6000 m
Nuages épars à une hauteur de 4000 ft

TAF: ZUUU 242003Z 2500/2524 02003MPS 6000 SCT040 TX20/2507Z TN15/2500Z

Observations et prévisions météorologiques de plus de 4000 aéroports (messages METAR et TAF).

Les stations disponibles sont représentées par des disques jaunes et rouges sur la carte.

Passer la souris dessus pour voir le nom de la station.

Cliquer dessus pour voir les observations et prévisions météorologiques.

Pour changer de carte: cliquez sur les boutons verts avec une croix noire pour zoomer, sur le bouton vert avec un tiret pour effectuer un zoom arrière, ou sur les flèches vertes pour les cartes adjacentes.


METAR-TAF: